Time;durP1;ratioP1;P1;durP2;ratioP2;P2;SDS_P1;SDS_P2;PMS_P1;PMS_P2;Temp;Humidity;BMP_temperature;BMP_pressure;BME280_temperature;BME280_humidity;BME280_pressure;Samples;Min_cycle;Max_cycle;Signal;HPM_P1;HPM_P2
2023/04/15 00:06:02;;;;;;;3.13;1.63;;;12.60;74.30;;;;;;5074970;28;20036;-80
2023/04/15 00:08:30;;;;;;;3.78;1.70;;;12.60;74.40;;;;;;5076985;28;20025;-80
2023/04/15 03:22:21;;;;;;;3.28;1.95;;;12.50;75.10;;;;;;1553377;22;20318;-82
2023/04/15 03:24:47;;;;;;;2.97;1.83;;;12.50;75.10;;;;;;4994010;28;20055;-81
2023/04/15 03:27:12;;;;;;;3.38;1.92;;;12.60;75.20;;;;;;4979476;29;20042;-81
2023/04/15 03:29:38;;;;;;;3.10;1.88;;;13.00;75.40;;;;;;4994886;28;20008;-81
2023/04/15 03:35:13;;;;;;;3.50;1.92;;;12.50;75.20;;;;;;5099473;22;20073;-82
2023/04/15 03:37:39;;;;;;;3.40;1.95;;;12.50;75.20;;;;;;5020437;28;20040;-81
2023/04/15 03:40:07;;;;;;;3.85;2.40;;;12.70;75.30;;;;;;5020837;28;20030;-82
2023/04/15 03:42:41;;;;;;;3.28;2.00;;;12.50;75.20;;;;;;5038242;28;20045;-81
2023/04/15 03:48:32;;;;;;;3.28;2.10;;;12.50;75.20;;;;;;5038127;28;20037;-81
2023/04/15 03:54:23;;;;;;;3.70;2.00;;;12.60;75.20;;;;;;5354140;22;20072;-81
2023/04/15 03:56:48;;;;;;;3.95;2.13;;;12.60;75.20;;;;;;5021096;28;20124;-82
2023/04/15 03:59:14;;;;;;;3.70;2.08;;;12.50;75.20;;;;;;5022575;28;20113;-81
2023/04/15 04:01:40;;;;;;;3.83;2.08;;;12.50;75.20;;;;;;5020480;28;20014;-81
2023/04/15 04:04:05;;;;;;;4.07;2.30;;;12.50;75.20;;;;;;5037094;28;20030;-82
2023/04/15 04:06:31;;;;;;;3.50;2.17;;;12.60;75.30;;;;;;5019087;28;20018;-81
2023/04/15 04:16:38;;;;;;;3.17;1.98;;;12.60;75.30;;;;;;4958534;28;20039;-80
2023/04/15 04:19:07;;;;;;;3.88;2.20;;;12.40;75.20;;;;;;4958105;29;20084;-82
2023/04/15 04:25:18;;;;;;;3.50;2.00;;;12.40;75.30;;;;;;5018385;28;20089;-81
2023/04/15 04:37:11;;;;;;;3.80;2.20;;;12.50;75.30;;;;;;5359782;23;19905;-82
2023/04/15 04:39:36;;;;;;;3.47;2.17;;;12.60;76.00;;;;;;5020186;28;20033;-81
2023/04/15 04:44:46;;;;;;;3.40;2.20;;;12.50;75.40;;;;;;5065367;23;20038;-81
2023/04/15 04:47:15;;;;;;;4.15;2.45;;;12.50;75.40;;;;;;5020272;28;20056;-81
2023/04/15 04:53:21;;;;;;;3.78;2.30;;;12.50;75.40;;;;;;4955827;29;20044;-81
2023/04/15 04:55:58;;;;;;;3.85;2.20;;;12.50;75.40;;;;;;4956312;29;20004;-81
2023/04/15 04:58:27;;;;;;;4.10;2.40;;;12.50;75.40;;;;;;4942273;29;20019;-82
2023/04/15 05:01:04;;;;;;;4.30;2.30;;;12.50;75.40;;;;;;4940482;29;20014;-82
2023/04/15 05:04:07;;;;;;;4.43;2.40;;;12.50;75.50;;;;;;4938091;29;20016;-81
2023/04/15 05:07:01;;;;;;;4.03;2.30;;;12.60;75.50;;;;;;4938436;29;20036;-81
2023/04/15 05:13:09;;;;;;;4.07;2.50;;;12.50;75.50;;;;;;4946336;29;20034;-81
2023/04/15 05:16:24;;;;;;;4.20;2.30;;;12.50;75.50;;;;;;4957030;29;20012;-81
2023/04/15 05:19:33;;;;;;;3.63;2.17;;;12.50;75.50;;;;;;4955980;29;20038;-82
2023/04/15 05:22:31;;;;;;;3.53;2.20;;;12.50;75.50;;;;;;4955068;29;20024;-81
2023/04/15 05:25:03;;;;;;;3.45;2.20;;;12.50;75.50;;;;;;4939744;29;20039;-82
2023/04/15 05:27:32;;;;;;;3.65;2.22;;;12.40;75.40;;;;;;4940096;29;20023;-81
2023/04/15 05:30:00;;;;;;;3.70;2.17;;;12.50;75.50;;;;;;4940259;29;20024;-82
2023/04/15 05:35:28;;;;;;;4.53;2.60;;;12.40;75.40;;;;;;5464841;23;20053;-85
2023/04/15 05:37:53;;;;;;;4.65;2.58;;;12.50;75.50;;;;;;5016973;28;20540;-85
2023/04/15 05:40:19;;;;;;;4.43;2.50;;;12.50;75.50;;;;;;5033908;28;20021;-85
2023/04/15 05:42:45;;;;;;;4.18;2.60;;;12.50;75.50;;;;;;5032589;28;20555;-85
2023/04/15 05:45:10;;;;;;;3.72;2.28;;;12.50;75.50;;;;;;5003105;28;20550;-85
2023/04/15 05:47:37;;;;;;;4.60;2.80;;;12.50;75.50;;;;;;5000006;28;20027;-83
2023/04/15 05:50:04;;;;;;;4.00;2.50;;;12.40;75.50;;;;;;4975504;28;20057;-84
2023/04/15 05:52:31;;;;;;;3.95;2.20;;;12.40;75.50;;;;;;4970909;28;20026;-83
2023/04/15 05:55:00;;;;;;;4.03;2.60;;;12.50;75.50;;;;;;4956128;28;20423;-86
2023/04/15 05:57:26;;;;;;;4.47;2.53;;;12.50;75.50;;;;;;4961216;28;20225;-86
2023/04/15 05:59:52;;;;;;;4.15;2.63;;;12.40;75.50;;;;;;4959818;28;20473;-84
2023/04/15 06:02:18;;;;;;;4.38;2.40;;;12.40;75.50;;;;;;4995668;28;20030;-85
2023/04/15 06:07:38;;;;;;;4.50;2.65;;;12.50;75.50;;;;;;5134084;22;20180;-87
2023/04/15 06:36:32;;;;;;;4.28;2.50;;;12.50;75.50;;;;;;5293444;22;20488;-85
2023/04/15 06:38:58;;;;;;;4.53;2.80;;;12.50;75.50;;;;;;5032520;28;20079;-84
2023/04/15 06:41:37;;;;;;;4.47;2.53;;;12.50;75.50;;;;;;5050928;28;20028;-80
2023/04/15 07:00:38;;;;;;;;;;;;;;;;;;;;;
2023/04/15 07:19:51;;;;;;;7.75;4.32;;;12.40;75.40;;;;;;4782871;29;20358;-86
2023/04/15 07:26:58;;;;;;;6.07;3.78;;;12.40;75.40;;;;;;5109146;23;20044;-84
2023/04/15 07:30:14;;;;;;;6.20;3.60;;;12.40;75.40;;;;;;5037974;28;20041;-85
2023/04/15 07:39:50;;;;;;;7.28;4.18;;;12.50;75.40;;;;;;5039559;28;20048;-84
2023/04/15 07:42:30;;;;;;;7.05;4.10;;;12.40;75.40;;;;;;5038501;28;20112;-84
2023/04/15 07:45:01;;;;;;;6.65;4.40;;;12.50;75.50;;;;;;5045746;22;20033;-83
2023/04/15 07:47:37;;;;;;;6.57;4.07;;;12.50;75.50;;;;;;5034735;28;20044;-84
2023/04/15 07:50:21;;;;;;;7.68;4.82;;;12.40;75.40;;;;;;5037236;28;20041;-83
2023/04/15 07:52:48;;;;;;;6.28;4.25;;;13.10;75.80;;;;;;5029923;28;20040;-84
2023/04/15 07:58:38;;;;;;;7.80;5.20;;;12.80;75.60;;;;;;5043919;28;20040;-87
2023/04/15 08:01:04;;;;;;;7.40;5.28;;;12.40;75.40;;;;;;5015346;28;20037;-85
2023/04/15 08:03:29;;;;;;;7.30;4.35;;;12.40;76.00;;;;;;5037722;28;20037;-85
2023/04/15 08:06:04;;;;;;;6.97;4.70;;;12.40;75.40;;;;;;5033532;28;20030;-87
2023/04/15 08:08:30;;;;;;;6.68;4.43;;;12.40;75.40;;;;;;5031393;28;20025;-90
2023/04/15 08:10:57;;;;;;;7.68;4.93;;;12.40;75.50;;;;;;5012751;28;20028;-85
2023/04/15 08:13:23;;;;;;;7.03;5.00;;;12.40;75.50;;;;;;5007736;28;20161;-86
2023/04/15 08:16:27;;;;;;;7.47;4.72;;;12.40;75.50;;;;;;5056599;23;20042;-89
2023/04/15 08:19:02;;;;;;;7.50;5.05;;;12.50;75.50;;;;;;5006489;28;20504;-89
2023/04/15 08:22:11;;;;;;;7.68;5.25;;;12.20;75.40;;;;;;5009311;28;20045;-86
2023/04/15 08:28:16;;;;;;;6.80;4.47;;;14.20;76.50;;;;;;5012284;28;20143;-86
2023/04/15 08:30:54;;;;;;;7.40;4.70;;;12.60;75.70;;;;;;4988826;28;20041;-93
2023/04/15 08:33:37;;;;;;;7.53;4.78;;;12.90;75.80;;;;;;4992849;28;20022;-86
2023/04/15 08:36:32;;;;;;;7.60;5.00;;;12.70;75.70;;;;;;4993708;28;20041;-86
2023/04/15 08:39:30;;;;;;;;;;;;;;;;;;;;;
2023/04/15 08:42:23;;;;;;;8.00;5.30;;;12.40;75.60;;;;;;5007190;28;20540;-86
2023/04/15 08:45:12;;;;;;;7.47;4.93;;;12.50;75.70;;;;;;4992510;28;20093;-86
2023/04/15 08:51:02;;;;;;;7.97;5.40;;;12.40;75.70;;;;;;5012474;28;20032;-88
2023/04/15 08:56:56;;;;;;;;;;;;;;;;;;;;;
2023/04/15 08:59:25;;;;;;;7.63;5.10;;;12.60;75.90;;;;;;5013812;28;20034;-85
2023/04/15 09:02:11;;;;;;;7.60;5.15;;;12.40;75.70;;;;;;4996392;28;20072;-87
2023/04/15 09:04:42;;;;;;;7.68;5.10;;;13.90;76.50;;;;;;5015118;28;20037;-88
2023/04/15 09:07:37;;;;;;;8.63;5.17;;;12.80;75.90;;;;;;4994218;28;20038;-86
2023/04/15 09:10:14;;;;;;;8.07;4.90;;;12.40;75.60;;;;;;4979494;28;20034;-86
2023/04/15 09:12:57;;;;;;;8.32;5.32;;;12.40;75.70;;;;;;4996034;28;20022;-87
2023/04/15 09:15:25;;;;;;;7.50;5.00;;;12.60;75.90;;;;;;5129894;23;20048;-88
2023/04/15 09:18:44;;;;;;;8.07;5.30;;;12.50;75.80;;;;;;5071116;28;20048;-86
2023/04/15 09:22:23;;;;;;;7.15;4.95;;;12.50;75.80;;;;;;4977473;28;20040;-86
2023/04/15 09:48:33;;;;;;;7.32;4.82;;;12.50;76.00;;;;;;5025947;28;20049;-84
2023/04/15 09:51:21;;;;;;;7.85;5.15;;;12.40;76.00;;;;;;5028647;28;20081;-83
2023/04/15 10:01:02;;;;;;;7.20;4.78;;;12.40;76.00;;;;;;4911010;29;20432;-82
2023/04/15 10:21:45;;;;;;;7.57;5.28;;;12.40;76.20;;;;;;4949150;29;20078;-86
2023/04/15 10:24:11;;;;;;;7.68;5.15;;;12.30;76.10;;;;;;4934689;29;20091;-87
2023/04/15 10:26:39;;;;;;;6.88;4.40;;;13.50;76.70;;;;;;4935991;29;20031;-83
2023/04/15 10:29:05;;;;;;;7.10;4.55;;;12.90;76.50;;;;;;4930191;29;20043;-81
2023/04/15 10:31:31;;;;;;;6.63;4.15;;;11.90;76.50;;;;;;4928807;29;20175;-85
2023/04/15 10:33:57;;;;;;;7.25;5.00;;;12.40;76.30;;;;;;4928566;28;20512;-82
2023/04/15 10:36:46;;;;;;;7.43;4.45;;;12.40;76.40;;;;;;5001701;28;20509;-86
2023/04/15 10:39:33;;;;;;;6.47;4.18;;;12.40;76.40;;;;;;5018462;28;20040;-87
2023/04/15 10:42:14;;;;;;;8.02;4.82;;;12.40;76.40;;;;;;5001614;28;20025;-86
2023/04/15 10:44:50;;;;;;;6.57;4.07;;;12.40;76.40;;;;;;5006211;28;20033;-83
2023/04/15 10:47:18;;;;;;;7.05;4.72;;;12.40;76.40;;;;;;5019493;28;20029;-83
2023/04/15 10:49:48;;;;;;;7.03;4.20;;;12.40;76.40;;;;;;5019706;28;20036;-83
2023/04/15 10:52:16;;;;;;;7.28;4.45;;;12.40;76.50;;;;;;5021045;28;20026;-82
2023/04/15 10:54:42;;;;;;;6.50;4.20;;;12.40;76.40;;;;;;5023048;28;20397;-85
2023/04/15 10:57:20;;;;;;;6.57;4.35;;;12.40;76.50;;;;;;5027312;28;20030;-87
2023/04/15 11:00:03;;;;;;;6.43;4.15;;;12.40;76.50;;;;;;5039369;28;20029;-87
2023/04/15 11:02:53;;;;;;;7.03;4.00;;;12.40;76.50;;;;;;5021404;28;20026;-87
2023/04/15 11:05:20;;;;;;;7.07;4.40;;;12.40;76.50;;;;;;5020988;28;20563;-87
2023/04/15 11:07:52;;;;;;;6.93;4.15;;;12.40;76.50;;;;;;5036029;28;20030;-87
2023/04/15 11:10:17;;;;;;;7.22;3.95;;;12.40;76.50;;;;;;5019697;28;20513;-87
2023/04/15 11:12:44;;;;;;;8.23;4.18;;;12.40;76.60;;;;;;5019758;28;20060;-87
2023/04/15 11:15:30;;;;;;;7.10;4.38;;;12.40;76.60;;;;;;5019599;28;20402;-87
2023/04/15 11:17:57;;;;;;;6.80;3.97;;;12.40;76.70;;;;;;5020040;28;20056;-86
2023/04/15 11:20:23;;;;;;;6.78;3.90;;;12.40;77.20;;;;;;5030036;28;20064;-88
2023/04/15 11:22:50;;;;;;;7.82;4.15;;;12.40;76.70;;;;;;5022326;28;20367;-88
2023/04/15 11:25:30;;;;;;;6.95;4.10;;;12.40;76.80;;;;;;5021446;28;20052;-88
2023/04/15 11:27:56;;;;;;;7.18;4.13;;;12.40;76.70;;;;;;5021789;28;20116;-87
2023/04/15 11:30:26;;;;;;;6.40;3.70;;;12.40;76.80;;;;;;5021805;28;20396;-87
2023/04/15 11:32:56;;;;;;;6.20;3.70;;;12.40;76.80;;;;;;5021507;28;20026;-87
2023/04/15 11:35:22;;;;;;;6.78;3.80;;;12.40;76.90;;;;;;5042228;23;20060;-86
2023/04/15 11:37:49;;;;;;;6.68;3.60;;;12.40;76.90;;;;;;5017015;28;20485;-88
2023/04/15 11:40:16;;;;;;;6.80;3.95;;;12.50;76.90;;;;;;5015988;28;20029;-86
2023/04/15 11:42:43;;;;;;;7.55;3.80;;;12.40;76.90;;;;;;5017190;28;20244;-85
2023/04/15 11:45:10;;;;;;;7.25;3.67;;;12.50;77.00;;;;;;5016742;28;20052;-87
2023/04/15 11:47:37;;;;;;;6.90;4.18;;;12.40;76.90;;;;;;5016513;28;20072;-86
2023/04/15 11:50:20;;;;;;;9.32;3.75;;;12.50;77.00;;;;;;5034245;28;20033;-85
2023/04/15 11:52:56;;;;;;;6.13;3.70;;;12.40;77.00;;;;;;5016219;28;20017;-86
2023/04/15 11:55:23;;;;;;;6.10;3.47;;;12.40;76.90;;;;;;5017029;28;20026;-86
2023/04/15 11:58:10;;;;;;;7.45;3.50;;;12.40;76.90;;;;;;5016757;28;20029;-86
2023/04/15 12:00:36;;;;;;;6.85;3.78;;;12.40;77.00;;;;;;5015292;28;20068;-85
2023/04/15 12:03:21;;;;;;;6.35;3.47;;;12.40;77.00;;;;;;5016976;28;20401;-87
2023/04/15 12:06:22;;;;;;;7.43;3.53;;;12.40;77.00;;;;;;5034032;28;20066;-86
2023/04/15 12:08:58;;;;;;;6.32;3.53;;;12.40;77.00;;;;;;5016238;28;20504;-86
2023/04/15 12:11:39;;;;;;;6.95;3.20;;;12.40;77.10;;;;;;5016092;28;20036;-86
2023/04/15 12:14:08;;;;;;;6.30;3.28;;;12.40;77.10;;;;;;5016190;28;20028;-86
2023/04/15 12:16:36;;;;;;;6.05;3.17;;;12.40;77.10;;;;;;5015942;28;20026;-85
2023/04/15 12:19:06;;;;;;;5.03;3.10;;;12.40;77.10;;;;;;5016094;28;20028;-85
2023/04/15 12:21:37;;;;;;;5.95;3.30;;;12.40;77.20;;;;;;5015658;28;20022;-85
2023/04/15 12:24:04;;;;;;;;;;;12.40;77.20;;;;;;5017222;28;20385;-86
2023/04/15 12:26:35;;;;;;;5.28;3.10;;;12.40;77.30;;;;;;5016177;28;20016;-86
2023/04/15 12:29:06;;;;;;;5.22;3.13;;;12.40;77.20;;;;;;5016567;28;20385;-87
2023/04/15 12:31:34;;;;;;;5.68;2.95;;;12.40;77.30;;;;;;5015718;28;20520;-85
2023/04/15 12:34:00;;;;;;;4.93;3.03;;;12.40;77.80;;;;;;5015806;28;20061;-86
2023/04/15 12:36:27;;;;;;;8.00;3.20;;;12.40;77.30;;;;;;5016149;28;20057;-85
2023/04/15 12:38:52;;;;;;;5.82;3.38;;;12.40;77.30;;;;;;5015393;28;20041;-85
2023/04/15 12:41:20;;;;;;;5.38;3.22;;;12.40;77.40;;;;;;5015653;28;20119;-86
2023/04/15 12:43:46;;;;;;;4.90;2.92;;;12.40;77.80;;;;;;5015458;28;20033;-86
2023/04/15 12:46:12;;;;;;;4.95;2.75;;;12.40;77.40;;;;;;5015153;28;20052;-85
2023/04/15 12:48:39;;;;;;;5.18;2.50;;;12.40;77.40;;;;;;5014906;28;20025;-85
2023/04/15 12:51:05;;;;;;;5.05;2.67;;;12.40;77.40;;;;;;5015626;28;20390;-86
2023/04/15 12:53:30;;;;;;;4.80;2.90;;;12.40;77.30;;;;;;5015669;28;20037;-85
2023/04/15 12:55:56;;;;;;;4.32;2.53;;;12.40;77.40;;;;;;5015602;28;20020;-86
2023/04/15 12:58:21;;;;;;;6.05;2.80;;;12.40;77.50;;;;;;5015492;28;20044;-87
2023/04/15 13:00:48;;;;;;;4.60;2.75;;;12.40;77.40;;;;;;5015371;28;20025;-87
2023/04/15 13:03:14;;;;;;;6.35;2.75;;;12.40;77.50;;;;;;5015655;28;20074;-86
2023/04/15 13:05:40;;;;;;;5.28;2.80;;;12.30;77.40;;;;;;5015262;28;20436;-86
2023/04/15 13:08:05;;;;;;;5.85;2.97;;;12.30;77.40;;;;;;5015030;28;20513;-86
2023/04/15 13:10:31;;;;;;;4.38;2.67;;;12.30;77.40;;;;;;5015011;28;20045;-86
2023/04/15 13:12:57;;;;;;;5.40;2.65;;;12.40;77.40;;;;;;5015626;28;20120;-85
2023/04/15 13:15:22;;;;;;;6.40;2.72;;;12.40;77.40;;;;;;5014809;28;20021;-86
2023/04/15 13:17:48;;;;;;;5.70;2.78;;;12.40;77.50;;;;;;5014857;28;20029;-85
2023/04/15 13:20:14;;;;;;;4.35;2.40;;;12.40;77.50;;;;;;5015086;28;20029;-86
2023/04/15 13:22:40;;;;;;;4.75;2.53;;;12.40;77.40;;;;;;5014800;28;20029;-86
2023/04/15 13:25:06;;;;;;;4.00;2.40;;;12.40;77.50;;;;;;5014843;28;20504;-86
2023/04/15 13:27:32;;;;;;;4.53;2.40;;;12.40;77.50;;;;;;5015229;28;20026;-85
2023/04/15 13:29:58;;;;;;;4.47;2.58;;;12.40;77.50;;;;;;4998790;28;20032;-86
2023/04/15 13:32:24;;;;;;;4.65;2.40;;;12.30;77.50;;;;;;4995056;28;20030;-87
2023/04/15 13:34:50;;;;;;;6.00;2.50;;;12.30;77.40;;;;;;4995110;28;20030;-85
2023/04/15 13:37:15;;;;;;;3.83;2.13;;;12.30;77.50;;;;;;4995529;28;20030;-86
2023/04/15 13:39:41;;;;;;;4.93;2.42;;;12.40;77.60;;;;;;4994902;28;20406;-86
2023/04/15 13:42:06;;;;;;;4.50;2.38;;;12.30;77.60;;;;;;4995109;28;20061;-86
2023/04/15 13:44:32;;;;;;;5.00;2.42;;;12.30;77.60;;;;;;4994840;28;20029;-86
2023/04/15 13:46:57;;;;;;;4.43;2.47;;;12.40;77.70;;;;;;4995274;28;20033;-86
2023/04/15 13:49:23;;;;;;;4.10;2.40;;;12.30;77.60;;;;;;4995162;28;20018;-86
2023/04/15 13:51:49;;;;;;;4.68;2.30;;;12.30;77.70;;;;;;4994875;28;20053;-86
2023/04/15 13:54:15;;;;;;;3.90;2.35;;;12.30;77.60;;;;;;4995095;28;20025;-86
2023/04/15 13:56:40;;;;;;;4.07;2.40;;;12.30;77.70;;;;;;4995206;28;20029;-86
2023/04/15 13:59:07;;;;;;;4.20;2.50;;;12.30;77.60;;;;;;4995043;28;20034;-86
2023/04/15 14:01:33;;;;;;;4.20;2.50;;;12.30;77.70;;;;;;5012679;28;20104;-85
2023/04/15 14:03:59;;;;;;;4.47;2.40;;;12.30;77.70;;;;;;4994674;28;20141;-86
2023/04/15 14:06:26;;;;;;;3.80;2.22;;;12.30;77.80;;;;;;4994525;28;20553;-86
2023/04/15 14:08:51;;;;;;;5.28;2.50;;;12.30;77.80;;;;;;4994555;28;20049;-86
2023/04/15 14:11:17;;;;;;;3.88;2.20;;;12.30;77.80;;;;;;4994903;28;20061;-86
2023/04/15 14:13:43;;;;;;;4.25;2.20;;;12.30;77.80;;;;;;4994909;28;20026;-87
2023/04/15 14:16:08;;;;;;;4.78;2.60;;;12.30;77.80;;;;;;4994900;28;20397;-86
2023/04/15 14:18:34;;;;;;;4.18;2.30;;;12.30;77.80;;;;;;4994840;28;20117;-84
2023/04/15 14:20:59;;;;;;;4.10;2.30;;;12.30;77.80;;;;;;5012322;28;20501;-86
2023/04/15 14:23:25;;;;;;;4.57;2.50;;;12.30;77.80;;;;;;4995049;28;20042;-86
2023/04/15 14:25:51;;;;;;;4.43;2.30;;;12.30;77.90;;;;;;4995232;28;20057;-85
2023/04/15 14:28:16;;;;;;;3.63;2.25;;;12.30;77.90;;;;;;4994832;28;20034;-86
2023/04/15 14:30:42;;;;;;;4.53;2.47;;;12.30;77.90;;;;;;4994588;28;20105;-86
2023/04/15 14:33:07;;;;;;;4.93;2.60;;;12.30;77.80;;;;;;4994774;28;20444;-86
2023/04/15 14:35:33;;;;;;;4.10;2.40;;;12.30;77.90;;;;;;4994397;28;20498;-86
2023/04/15 14:37:58;;;;;;;4.30;2.45;;;12.30;77.90;;;;;;4994393;28;20057;-87
2023/04/15 14:40:24;;;;;;;4.57;2.33;;;12.30;77.80;;;;;;4994223;28;20021;-85
2023/04/15 14:42:50;;;;;;;4.18;2.40;;;12.30;77.90;;;;;;4994338;28;20026;-86
2023/04/15 14:45:16;;;;;;;3.97;2.38;;;12.30;77.90;;;;;;4994504;28;20022;-86
2023/04/15 14:47:42;;;;;;;4.13;2.40;;;12.30;78.00;;;;;;4994173;28;20022;-85
2023/04/15 14:50:08;;;;;;;4.22;2.40;;;12.30;78.00;;;;;;4994541;28;20022;-86
2023/04/15 14:52:37;;;;;;;4.82;2.70;;;12.30;77.90;;;;;;4994957;28;20017;-86
2023/04/15 14:55:05;;;;;;;4.50;2.40;;;12.30;78.00;;;;;;4994638;28;20067;-85
2023/04/15 14:57:31;;;;;;;4.20;2.60;;;12.30;78.10;;;;;;5011687;28;20033;-86
2023/04/15 14:59:56;;;;;;;4.70;2.55;;;12.40;78.10;;;;;;4994246;28;20026;-85
2023/04/15 15:02:22;;;;;;;4.35;2.55;;;12.30;78.10;;;;;;4994033;28;20473;-86
2023/04/15 15:04:47;;;;;;;4.40;2.50;;;12.30;78.20;;;;;;4994281;28;20029;-86
2023/04/15 15:07:13;;;;;;;4.38;2.58;;;12.30;78.20;;;;;;4994419;28;20573;-86
2023/04/15 15:09:38;;;;;;;4.72;2.50;;;12.30;78.10;;;;;;4994269;28;20037;-86
2023/04/15 15:12:04;;;;;;;4.28;2.53;;;12.30;78.10;;;;;;4997554;28;20018;-86
2023/04/15 15:14:30;;;;;;;4.80;2.75;;;12.30;78.20;;;;;;4997377;28;20018;-86
2023/04/15 15:16:55;;;;;;;4.35;2.60;;;12.30;78.70;;;;;;4997508;28;20029;-86
2023/04/15 15:19:21;;;;;;;4.82;2.75;;;12.30;78.30;;;;;;4997642;28;20022;-86
2023/04/15 15:21:46;;;;;;;4.40;2.70;;;12.30;78.20;;;;;;5014810;28;20026;-85
2023/04/15 15:24:12;;;;;;;3.90;2.40;;;12.30;78.20;;;;;;4997703;28;20109;-86
2023/04/15 15:26:38;;;;;;;5.25;2.72;;;12.40;78.20;;;;;;4997296;28;20454;-86
2023/04/15 15:29:04;;;;;;;4.38;2.60;;;12.30;78.20;;;;;;4997459;28;20026;-86
2023/04/15 15:31:29;;;;;;;4.53;2.60;;;12.30;78.20;;;;;;4997209;28;20404;-84
2023/04/15 15:33:55;;;;;;;4.68;2.75;;;12.30;78.30;;;;;;4997805;28;20026;-85
2023/04/15 15:36:20;;;;;;;5.07;2.75;;;12.30;78.40;;;;;;4997012;28;20037;-84
2023/04/15 15:38:46;;;;;;;4.22;2.40;;;12.30;78.40;;;;;;5014536;28;20081;-82
2023/04/15 15:41:11;;;;;;;4.97;2.83;;;12.30;78.40;;;;;;4996925;28;20092;-83
2023/04/15 15:43:37;;;;;;;5.20;2.80;;;12.30;78.40;;;;;;4997563;28;20029;-85
2023/04/15 15:46:02;;;;;;;4.55;2.53;;;12.30;78.40;;;;;;4997684;28;20022;-84
2023/04/15 15:48:28;;;;;;;4.82;2.88;;;12.30;78.40;;;;;;4996851;28;20120;-83
2023/04/15 15:50:53;;;;;;;4.80;2.53;;;12.30;78.30;;;;;;4997324;28;20470;-82
2023/04/15 15:53:19;;;;;;;4.80;2.67;;;12.30;78.40;;;;;;5014865;28;20049;-82
2023/04/15 15:55:47;;;;;;;4.72;2.63;;;12.30;78.40;;;;;;4997340;28;20550;-82
2023/04/15 15:58:13;;;;;;;4.78;2.75;;;12.30;78.40;;;;;;4997445;28;20037;-82
2023/04/15 16:00:38;;;;;;;5.07;2.70;;;12.30;78.50;;;;;;4997238;28;20033;-80
2023/04/15 16:03:04;;;;;;;5.05;2.78;;;12.30;78.50;;;;;;4997289;28;20053;-82
2023/04/15 16:05:30;;;;;;;5.20;2.95;;;12.30;78.50;;;;;;4997032;28;20026;-82
2023/04/15 16:07:55;;;;;;;4.32;2.50;;;12.30;78.40;;;;;;4996802;28;20121;-79
2023/04/15 16:10:21;;;;;;;4.57;2.80;;;12.30;78.50;;;;;;4997673;28;20110;-81
2023/04/15 16:12:46;;;;;;;4.82;2.83;;;12.30;78.50;;;;;;5014769;28;20018;-81
2023/04/15 16:15:12;;;;;;;5.10;3.00;;;12.30;79.00;;;;;;5014360;28;20026;-80
2023/04/15 16:17:37;;;;;;;5.25;2.97;;;12.30;78.50;;;;;;5014581;28;20021;-82
2023/04/15 16:20:04;;;;;;;4.80;2.75;;;12.30;78.50;;;;;;5006558;28;20033;-82
2023/04/15 16:22:30;;;;;;;5.78;2.80;;;12.30;78.50;;;;;;5034073;28;20099;-82
2023/04/15 16:24:57;;;;;;;4.95;2.83;;;12.30;78.50;;;;;;5034060;28;20478;-80
2023/04/15 16:27:22;;;;;;;4.68;2.83;;;12.30;78.50;;;;;;5016286;28;20068;-83
2023/04/15 16:29:48;;;;;;;4.90;3.10;;;12.30;78.60;;;;;;5016395;28;20049;-82
2023/04/15 16:32:13;;;;;;;5.10;3.10;;;12.30;78.60;;;;;;5016060;28;20569;-82
2023/04/15 16:34:40;;;;;;;5.25;2.85;;;12.30;78.70;;;;;;5016112;28;20028;-82
2023/04/15 16:37:05;;;;;;;5.10;2.85;;;12.30;78.70;;;;;;5016301;28;20021;-82
2023/04/15 16:39:31;;;;;;;5.20;2.92;;;12.30;78.70;;;;;;5033848;28;20026;-80
2023/04/15 16:41:56;;;;;;;5.05;3.15;;;12.30;78.70;;;;;;5033640;28;20493;-82
2023/04/15 16:44:23;;;;;;;5.88;3.63;;;12.30;78.70;;;;;;5018657;28;20116;-84
2023/04/15 16:46:48;;;;;;;5.80;3.10;;;12.30;78.70;;;;;;5019479;28;20397;-84
2023/04/15 16:49:14;;;;;;;5.45;3.05;;;12.30;78.70;;;;;;5019589;28;20029;-83
2023/04/15 16:51:39;;;;;;;6.40;3.40;;;12.30;78.70;;;;;;5037639;28;20025;-82
2023/04/15 16:54:05;;;;;;;5.25;3.17;;;12.30;78.70;;;;;;5014723;28;20108;-83
2023/04/15 16:56:30;;;;;;;5.82;3.45;;;12.30;78.70;;;;;;5015634;28;20021;-83
2023/04/15 16:58:56;;;;;;;5.43;2.80;;;12.30;78.70;;;;;;5015547;28;20109;-82
2023/04/15 17:01:21;;;;;;;5.20;2.75;;;12.30;78.70;;;;;;5015357;28;20072;-82
2023/04/15 17:03:47;;;;;;;5.68;3.30;;;12.30;78.70;;;;;;5014105;28;20025;-82
2023/04/15 17:06:14;;;;;;;6.13;3.13;;;12.30;78.70;;;;;;4997767;28;20026;-82
2023/04/15 17:08:40;;;;;;;4.72;2.75;;;12.30;78.70;;;;;;4997828;28;20045;-84
2023/04/15 17:11:05;;;;;;;5.28;3.00;;;12.30;78.70;;;;;;5015006;28;20037;-83
2023/04/15 17:13:31;;;;;;;4.75;3.00;;;12.30;78.70;;;;;;5016195;28;20026;-84
2023/04/15 17:15:57;;;;;;;5.82;3.20;;;12.30;78.80;;;;;;5016232;28;20053;-83
2023/04/15 17:18:22;;;;;;;6.20;3.22;;;12.30;78.80;;;;;;5015046;28;20026;-83
2023/04/15 17:20:48;;;;;;;5.40;3.10;;;12.30;78.70;;;;;;5015508;28;20559;-85
2023/04/15 17:23:13;;;;;;;5.65;3.10;;;12.30;78.70;;;;;;5014991;28;20030;-85
2023/04/15 17:25:39;;;;;;;5.60;3.13;;;12.30;78.70;;;;;;4998809;28;20119;-85
2023/04/15 17:28:04;;;;;;;6.03;3.33;;;12.30;78.80;;;;;;5014676;28;20478;-85
2023/04/15 17:30:31;;;;;;;5.30;3.28;;;12.30;78.70;;;;;;5014029;28;20025;-85
2023/04/15 17:32:57;;;;;;;6.10;3.08;;;12.30;78.70;;;;;;5015606;28;20441;-84
2023/04/15 17:35:24;;;;;;;5.78;3.42;;;12.30;78.80;;;;;;5031147;23;20037;-80
2023/04/15 17:37:50;;;;;;;6.13;3.45;;;12.30;78.80;;;;;;5040896;28;20021;-82
2023/04/15 17:40:16;;;;;;;5.70;2.88;;;12.30;78.80;;;;;;5057785;28;20024;-82
2023/04/15 17:42:41;;;;;;;5.90;3.38;;;12.30;78.80;;;;;;5046037;28;20459;-83
2023/04/15 17:45:07;;;;;;;5.63;3.22;;;12.30;78.80;;;;;;5059679;28;20472;-83
2023/04/15 17:47:33;;;;;;;5.47;3.22;;;12.30;78.80;;;;;;5030828;28;20025;-83
2023/04/15 17:49:58;;;;;;;6.85;3.20;;;12.30;78.80;;;;;;5017819;28;20363;-79
2023/04/15 17:52:24;;;;;;;5.97;3.40;;;12.30;78.80;;;;;;5019860;28;20030;-82
2023/04/15 17:54:49;;;;;;;5.13;3.10;;;12.30;78.80;;;;;;5021492;28;20028;-83
2023/04/15 17:57:15;;;;;;;5.80;3.58;;;12.30;78.80;;;;;;5013994;28;20022;-81
2023/04/15 17:59:46;;;;;;;5.43;3.25;;;12.30;78.80;;;;;;4994906;28;20113;-82
2023/04/15 18:02:11;;;;;;;6.23;3.73;;;12.30;78.80;;;;;;4998462;28;20557;-81
2023/04/15 18:04:37;;;;;;;6.22;3.88;;;12.30;78.90;;;;;;5032888;28;20064;-81
2023/04/15 18:07:04;;;;;;;6.70;3.63;;;12.30;78.80;;;;;;5020192;28;20068;-82
2023/04/15 18:09:29;;;;;;;5.68;3.25;;;12.30;78.90;;;;;;5028772;28;20025;-78
2023/04/15 18:11:56;;;;;;;6.00;3.30;;;12.30;78.90;;;;;;5000183;28;20029;-82
2023/04/15 18:14:21;;;;;;;6.13;3.50;;;12.30;78.90;;;;;;5023074;28;20686;-81
2023/04/15 18:16:48;;;;;;;5.80;3.13;;;12.30;78.90;;;;;;5006499;28;20022;-81
2023/04/15 18:19:13;;;;;;;6.18;3.47;;;12.30;78.90;;;;;;5019485;28;20056;-82
2023/04/15 18:21:39;;;;;;;6.55;3.72;;;12.30;78.90;;;;;;5019152;28;20034;-82
2023/04/15 18:24:05;;;;;;;5.70;3.55;;;12.30;78.90;;;;;;5019070;28;20034;-81
2023/04/15 18:26:30;;;;;;;5.68;3.58;;;12.30;79.00;;;;;;5019094;28;20025;-82
2023/04/15 18:28:56;;;;;;;6.72;3.80;;;12.30;79.00;;;;;;5040841;28;20061;-82
2023/04/15 18:31:21;;;;;;;6.30;3.65;;;12.30;79.00;;;;;;5013826;28;20046;-83
2023/04/15 18:33:47;;;;;;;6.30;3.67;;;12.30;79.10;;;;;;5019969;28;20371;-83
2023/04/15 18:36:12;;;;;;;5.65;3.30;;;12.30;79.10;;;;;;5028278;28;20112;-82
2023/04/15 18:38:38;;;;;;;6.85;3.80;;;12.30;79.10;;;;;;5037636;28;20021;-81
2023/04/15 18:41:04;;;;;;;6.32;3.70;;;12.30;79.10;;;;;;5007731;28;20026;-82
2023/04/15 18:43:30;;;;;;;6.40;3.38;;;12.30;79.60;;;;;;5002408;28;20700;-82
2023/04/15 18:45:55;;;;;;;6.68;3.83;;;12.30;79.10;;;;;;5007306;28;20026;-82
2023/04/15 18:48:21;;;;;;;8.27;4.88;;;12.30;79.10;;;;;;5027711;28;20041;-83
2023/04/15 18:50:47;;;;;;;7.47;4.50;;;12.30;79.20;;;;;;5007918;28;20025;-81
2023/04/15 18:53:12;;;;;;;7.45;4.57;;;12.30;79.30;;;;;;5005109;28;20021;-84
2023/04/15 18:55:38;;;;;;;7.75;4.38;;;12.30;79.40;;;;;;5018328;28;20113;-85
2023/04/15 18:58:05;;;;;;;6.95;4.40;;;12.30;79.40;;;;;;5005682;28;20030;-84
2023/04/15 19:00:30;;;;;;;9.23;4.70;;;12.30;79.40;;;;;;5022368;28;20034;-84
2023/04/15 19:02:56;;;;;;;8.25;4.68;;;12.30;79.40;;;;;;5011383;28;20121;-84
2023/04/15 19:05:21;;;;;;;8.90;4.60;;;12.30;79.40;;;;;;5017816;28;20029;-84
2023/04/15 19:07:47;;;;;;;8.43;4.70;;;12.30;79.40;;;;;;5040918;28;20029;-84
2023/04/15 19:10:12;;;;;;;8.30;4.72;;;12.30;79.40;;;;;;5021629;28;20541;-84
2023/04/15 19:12:39;;;;;;;8.88;4.78;;;12.30;79.40;;;;;;5040651;28;20030;-84
2023/04/15 19:15:05;;;;;;;8.90;4.60;;;12.30;79.40;;;;;;5021080;28;20083;-84
2023/04/15 19:17:30;;;;;;;8.27;4.47;;;12.30;79.40;;;;;;5021099;28;20071;-85
2023/04/15 19:19:56;;;;;;;9.60;4.88;;;12.30;79.40;;;;;;5022062;28;20478;-85